createdAt,value
2023-03-17T00:03:33.859Z,70.45
2023-03-17T01:20:06.791Z,71.20
2023-03-17T01:50:29.779Z,71.90
2023-03-17T02:20:58.082Z,71.24
2023-03-17T02:36:01.951Z,71.11
2023-03-17T02:51:06.453Z,71.64
2023-03-17T03:06:24.290Z,71.52
2023-03-17T03:36:47.057Z,71.60
2023-03-17T03:51:50.740Z,71.59
2023-03-17T04:06:54.601Z,71.21
2023-03-17T04:21:58.853Z,71.34
2023-03-17T04:37:16.813Z,71.38
2023-03-17T04:52:20.793Z,71.55
2023-03-17T05:07:25.493Z,71.37
2023-03-17T05:22:29.571Z,71.19
2023-03-17T05:37:33.421Z,70.57
2023-03-17T05:52:52.434Z,70.71
2023-03-17T06:07:56.712Z,70.34
2023-03-17T06:23:05.266Z,70.43
2023-03-17T06:38:09.964Z,70.66
2023-03-17T06:53:15.125Z,70.35
2023-03-17T07:08:20.220Z,69.50
2023-03-17T07:23:25.218Z,67.55
2023-03-17T07:38:29.594Z,66.48
2023-03-17T07:53:33.992Z,66.55
2023-03-17T08:08:38.298Z,66.20
2023-03-17T08:23:42.505Z,66.06
2023-03-17T08:38:48.194Z,65.60
2023-03-17T08:54:07.933Z,64.56
2023-03-17T09:09:12.987Z,63.59
2023-03-17T09:24:20.773Z,61.95
2023-03-17T09:39:38.729Z,60.23
2023-03-17T09:54:44.475Z,58.87
2023-03-17T10:10:04.465Z,58.76
2023-03-17T10:25:29.838Z,58.75
2023-03-17T10:40:36.450Z,58.76
2023-03-17T10:55:49.867Z,57.68
2023-03-17T11:11:26.480Z,56.23
2023-03-17T11:27:26.589Z,55.28
2023-03-17T11:43:11.378Z,54.72
2023-03-17T11:58:44.266Z,54.33
2023-03-17T12:14:06.083Z,54.20
2023-03-17T12:29:20.641Z,51.84
2023-03-17T12:44:57.719Z,51.57
2023-03-17T13:00:33.929Z,49.44
2023-03-17T13:15:39.852Z,49.35
2023-03-17T13:31:10.301Z,48.36
2023-03-17T13:46:34.255Z,48.17
2023-03-17T14:01:48.918Z,48.73
2023-03-17T14:17:05.272Z,48.94
2023-03-17T14:32:19.620Z,48.94
2023-03-17T15:03:03.464Z,50.03
2023-03-17T15:18:14.579Z,49.83
2023-03-17T15:33:41.754Z,50.42
2023-03-17T15:49:00.317Z,50.92
2023-03-17T16:04:18.368Z,52.38
2023-03-17T16:19:36.086Z,53.36
2023-03-17T16:34:40.297Z,53.99
2023-03-17T16:49:58.132Z,54.71
2023-03-17T17:05:03.321Z,54.84
2023-03-17T17:20:32.045Z,55.92
2023-03-17T17:35:37.977Z,55.99
2023-03-17T17:50:43.356Z,56.61
2023-03-17T18:05:47.455Z,56.77
2023-03-17T18:21:06.323Z,56.81
2023-03-17T18:36:11.929Z,56.84
2023-03-17T18:51:16.346Z,56.51
2023-03-17T19:06:23.485Z,56.71
2023-03-17T19:21:28.720Z,57.00
2023-03-17T19:36:46.916Z,57.43
2023-03-17T19:51:50.955Z,57.35
2023-03-17T20:06:57.248Z,57.94
2023-03-17T20:22:02.230Z,58.30
2023-03-17T20:37:07.167Z,59.18
2023-03-17T20:52:14.742Z,59.87
2023-03-17T21:07:21.542Z,60.22
2023-03-17T21:22:26.306Z,60.48
2023-03-17T21:37:30.972Z,60.90
2023-03-17T21:52:35.710Z,61.14
2023-03-17T22:07:41.386Z,61.53
2023-03-17T22:22:45.741Z,61.57
2023-03-17T22:37:50.100Z,61.77
2023-03-17T22:52:54.133Z,61.98
2023-03-17T23:07:58.327Z,61.97
2023-03-17T23:23:02.613Z,62.22
2023-03-17T23:38:21.748Z,62.54
2023-03-17T23:53:26.676Z,62.56
